Time;durP1;ratioP1;P1;durP2;ratioP2;P2;SDS_P1;SDS_P2;PMS_P1;PMS_P2;Temp;Humidity;BMP_temperature;BMP_pressure;BME280_temperature;BME280_humidity;BME280_pressure;Samples;Min_cycle;Max_cycle;Signal;HPM_P1;HPM_P2
2021/05/01 00:01:03;;;;;;;31.63;26.90;;;9.40;84.20;;;;;;5197572;28;20053;-69
2021/05/01 00:03:34;;;;;;;34.40;28.25;;;9.30;85.20;;;;;;5199804;28;20041;-68
2021/05/01 00:06:06;;;;;;;34.25;27.25;;;9.20;85.90;;;;;;5196652;28;20049;-68
2021/05/01 00:08:37;;;;;;;32.10;28.60;;;9.20;85.40;;;;;;5199991;28;20523;-68
2021/05/01 00:11:09;;;;;;;31.40;26.98;;;9.20;85.80;;;;;;5198890;28;20814;-69
2021/05/01 00:13:40;;;;;;;32.45;27.67;;;9.30;85.50;;;;;;5198893;28;20133;-69
2021/05/01 00:16:12;;;;;;;32.88;27.35;;;9.40;85.00;;;;;;5198566;28;20056;-69
2021/05/01 00:18:43;;;;;;;29.77;26.30;;;9.40;85.10;;;;;;5197882;28;20598;-69
2021/05/01 00:21:15;;;;;;;30.67;26.50;;;9.40;85.00;;;;;;5198211;28;20041;-68
2021/05/01 00:23:46;;;;;;;29.50;25.35;;;9.40;85.10;;;;;;5199580;28;20073;-68
2021/05/01 00:26:18;;;;;;;29.45;25.10;;;9.40;85.10;;;;;;5198270;28;20069;-69
2021/05/01 00:28:50;;;;;;;29.95;26.67;;;9.40;85.10;;;;;;5199065;28;20041;-68
2021/05/01 00:31:21;;;;;;;28.65;25.38;;;9.30;85.30;;;;;;5198000;28;20107;-68
2021/05/01 00:33:53;;;;;;;29.20;26.10;;;9.30;85.90;;;;;;5198682;28;20045;-69
2021/05/01 00:36:24;;;;;;;29.15;25.88;;;9.30;85.80;;;;;;5196437;28;20122;-69
2021/05/01 00:38:57;;;;;;;30.60;26.38;;;9.30;85.40;;;;;;5180738;28;20046;-68
2021/05/01 00:41:28;;;;;;;29.40;25.23;;;9.30;85.40;;;;;;5197196;28;20041;-69
2021/05/01 00:44:03;;;;;;;29.40;26.20;;;9.30;85.80;;;;;;5196997;28;20542;-69
2021/05/01 00:46:35;;;;;;;29.65;26.42;;;9.30;85.50;;;;;;5195452;28;20054;-69
2021/05/01 00:49:06;;;;;;;29.73;25.95;;;9.30;85.80;;;;;;5198757;28;20037;-69
2021/05/01 00:51:38;;;;;;;30.33;26.63;;;9.30;85.30;;;;;;5197949;28;20136;-68
2021/05/01 00:54:09;;;;;;;27.83;24.80;;;9.30;85.10;;;;;;5199008;28;20045;-68
2021/05/01 00:56:41;;;;;;;28.60;25.48;;;9.30;84.90;;;;;;5197729;28;20077;-69
2021/05/01 00:59:13;;;;;;;27.88;24.73;;;9.40;84.80;;;;;;5198214;28;20049;-68
2021/05/01 01:01:49;;;;;;;28.45;25.35;;;9.40;84.70;;;;;;5197656;28;20310;-68
2021/05/01 01:04:21;;;;;;;27.90;24.90;;;9.40;84.40;;;;;;5197150;28;20095;-68
2021/05/01 01:06:52;;;;;;;28.35;24.73;;;9.40;84.40;;;;;;5197350;28;20042;-69
2021/05/01 01:09:24;;;;;;;28.13;25.00;;;9.30;84.30;;;;;;5220325;28;20045;-68
2021/05/01 01:11:55;;;;;;;28.23;25.20;;;9.30;84.30;;;;;;5215180;28;20049;-68
2021/05/01 01:14:27;;;;;;;28.13;25.08;;;9.40;84.20;;;;;;5198248;28;20447;-69
2021/05/01 01:16:59;;;;;;;30.52;27.23;;;9.30;84.40;;;;;;5213336;28;20147;-69
2021/05/01 01:19:31;;;;;;;28.75;25.65;;;9.20;84.90;;;;;;5196859;28;20049;-69
2021/05/01 01:22:03;;;;;;;28.58;25.48;;;9.20;84.90;;;;;;5196355;28;20095;-69
2021/05/01 01:24:34;;;;;;;25.92;23.20;;;9.10;85.20;;;;;;5198486;28;20183;-68
2021/05/01 01:27:07;;;;;;;23.77;21.27;;;9.10;85.40;;;;;;5197331;28;20071;-70
2021/05/01 01:29:42;;;;;;;18.85;16.85;;;9.10;85.00;;;;;;5194922;28;20044;-69
2021/05/01 01:32:14;;;;;;;20.35;18.15;;;9.20;84.10;;;;;;5196368;28;20045;-69
2021/05/01 01:34:45;;;;;;;23.75;21.20;;;9.30;84.10;;;;;;5198001;28;20565;-69
2021/05/01 01:37:17;;;;;;;21.85;19.10;;;9.40;84.10;;;;;;5180453;28;20095;-68
2021/05/01 01:39:48;;;;;;;23.67;21.05;;;9.40;84.00;;;;;;5193167;28;20048;-69
2021/05/01 01:42:20;;;;;;;24.20;21.48;;;9.40;83.70;;;;;;5184654;28;20041;-68
2021/05/01 01:44:51;;;;;;;24.23;21.13;;;9.40;83.70;;;;;;5195948;28;20033;-69
2021/05/01 01:47:23;;;;;;;25.48;22.40;;;9.40;84.20;;;;;;5196292;28;20052;-69
2021/05/01 01:49:54;;;;;;;24.50;21.15;;;9.40;84.10;;;;;;5186163;28;20484;-69
2021/05/01 01:52:26;;;;;;;23.00;20.08;;;9.30;83.90;;;;;;5197618;28;20511;-69
2021/05/01 01:54:58;;;;;;;23.00;20.40;;;9.30;83.80;;;;;;5201720;28;20053;-70
2021/05/01 01:57:29;;;;;;;22.45;20.13;;;9.30;83.60;;;;;;5199493;28;20069;-69
2021/05/01 02:00:04;;;;;;;22.27;19.85;;;9.30;83.30;;;;;;5201740;28;20041;-69
2021/05/01 02:02:43;;;;;;;22.15;19.75;;;9.40;83.20;;;;;;5201998;28;20050;-71
2021/05/01 02:05:15;;;;;;;21.27;19.00;;;9.30;83.60;;;;;;5198062;28;20124;-70
2021/05/01 02:07:47;;;;;;;21.60;19.25;;;9.30;83.20;;;;;;5201617;28;20091;-70
2021/05/01 02:10:19;;;;;;;23.65;20.58;;;9.20;83.70;;;;;;5201306;28;20482;-69
2021/05/01 02:12:50;;;;;;;21.02;18.55;;;9.10;83.70;;;;;;5201297;28;20106;-69
2021/05/01 02:15:23;;;;;;;21.33;18.85;;;9.20;83.80;;;;;;5201389;28;20060;-69
2021/05/01 02:17:56;;;;;;;22.17;19.55;;;9.20;83.80;;;;;;5200748;28;20079;-69
2021/05/01 02:20:30;;;;;;;19.52;17.17;;;9.00;84.00;;;;;;5200780;28;20053;-69
2021/05/01 02:23:03;;;;;;;19.88;17.63;;;9.10;83.60;;;;;;5197710;28;20041;-68
2021/05/01 02:25:35;;;;;;;19.23;17.23;;;9.20;82.90;;;;;;5199446;28;20049;-69
2021/05/01 02:28:07;;;;;;;20.73;18.50;;;9.20;82.70;;;;;;5198793;28;20049;-69
2021/05/01 02:30:39;;;;;;;20.33;17.88;;;9.20;83.10;;;;;;5200031;28;20453;-68
2021/05/01 02:33:10;;;;;;;21.60;19.30;;;9.10;83.70;;;;;;5201417;28;20048;-69
2021/05/01 02:35:42;;;;;;;21.23;18.75;;;9.10;83.30;;;;;;5195434;28;20045;-69
2021/05/01 02:38:13;;;;;;;20.45;17.58;;;9.10;83.40;;;;;;5199087;28;20143;-69
2021/05/01 02:40:45;;;;;;;20.80;18.08;;;9.20;83.00;;;;;;5201022;28;20542;-68
2021/05/01 02:43:17;;;;;;;19.92;17.63;;;9.10;83.50;;;;;;5200371;28;20049;-68
2021/05/01 02:45:49;;;;;;;21.13;17.20;;;9.20;83.30;;;;;;5200834;28;20049;-71
2021/05/01 02:48:20;;;;;;;20.02;17.30;;;9.10;83.20;;;;;;5199536;28;20123;-69
2021/05/01 02:50:52;;;;;;;20.15;17.45;;;9.10;83.40;;;;;;5198658;28;20055;-69
2021/05/01 02:53:23;;;;;;;19.98;17.25;;;9.20;83.10;;;;;;5200396;28;20041;-70
2021/05/01 02:55:54;;;;;;;22.17;17.70;;;9.20;83.30;;;;;;5197448;28;20384;-69
2021/05/01 02:58:26;;;;;;;18.33;15.82;;;9.20;82.30;;;;;;5200419;28;20107;-67
2021/05/01 03:00:57;;;;;;;19.05;16.05;;;9.20;82.10;;;;;;5194410;28;20041;-67
2021/05/01 03:03:29;;;;;;;19.55;16.98;;;9.30;81.90;;;;;;5200685;28;20041;-67
2021/05/01 03:06:00;;;;;;;21.48;17.58;;;9.30;81.70;;;;;;5195867;28;20049;-67
2021/05/01 03:08:31;;;;;;;22.08;18.30;;;9.30;82.60;;;;;;5201328;28;20422;-67
2021/05/01 03:11:03;;;;;;;22.15;18.58;;;9.10;82.30;;;;;;5182437;28;20053;-67
2021/05/01 03:13:34;;;;;;;21.92;18.48;;;9.10;82.70;;;;;;5200453;28;20474;-67
2021/05/01 03:16:06;;;;;;;22.23;19.38;;;9.10;82.80;;;;;;5193381;28;20128;-67
2021/05/01 03:18:37;;;;;;;22.73;18.75;;;9.00;83.20;;;;;;5216143;28;20396;-67
2021/05/01 03:21:09;;;;;;;20.70;18.48;;;8.90;83.40;;;;;;5197386;28;20100;-67
2021/05/01 03:23:41;;;;;;;21.67;18.77;;;9.00;83.30;;;;;;5200792;28;20470;-67
2021/05/01 03:26:12;;;;;;;21.65;18.60;;;9.00;83.40;;;;;;5181441;28;20095;-67
2021/05/01 03:28:44;;;;;;;22.98;19.13;;;9.00;83.80;;;;;;5199141;28;20529;-67
2021/05/01 03:31:16;;;;;;;24.20;19.20;;;9.00;83.20;;;;;;5198011;28;20709;-68
2021/05/01 03:33:47;;;;;;;23.00;19.40;;;9.10;83.40;;;;;;5215610;28;20053;-67
2021/05/01 03:36:18;;;;;;;21.80;19.45;;;9.00;83.60;;;;;;5196668;28;20519;-68
2021/05/01 03:38:50;;;;;;;24.63;19.90;;;9.00;83.20;;;;;;5200017;28;20046;-67
2021/05/01 03:41:21;;;;;;;21.38;18.73;;;9.10;83.10;;;;;;5197897;28;20153;-67
2021/05/01 03:43:53;;;;;;;23.40;20.85;;;9.10;83.20;;;;;;5200116;28;20115;-68
2021/05/01 03:46:24;;;;;;;24.00;20.48;;;9.20;82.90;;;;;;5198659;28;20097;-67
2021/05/01 03:48:58;;;;;;;24.88;20.80;;;9.20;82.90;;;;;;5198634;28;20147;-67
2021/05/01 03:51:30;;;;;;;24.88;20.73;;;9.20;82.60;;;;;;5199081;28;20081;-67
2021/05/01 03:54:01;;;;;;;25.00;20.08;;;9.20;82.80;;;;;;5199637;28;20052;-68
2021/05/01 03:56:33;;;;;;;24.67;20.92;;;9.10;82.80;;;;;;5197403;28;20045;-67
2021/05/01 03:59:05;;;;;;;24.23;20.77;;;9.20;82.80;;;;;;5200157;28;20096;-67
2021/05/01 04:01:36;;;;;;;25.88;21.88;;;9.20;82.70;;;;;;5197338;28;20593;-67
2021/05/01 04:04:10;;;;;;;23.92;21.30;;;9.20;82.70;;;;;;5199683;28;20033;-67
2021/05/01 04:06:41;;;;;;;24.83;20.48;;;9.20;82.60;;;;;;5187738;28;20576;-67
2021/05/01 04:09:13;;;;;;;24.63;21.65;;;9.20;83.30;;;;;;5199019;28;20033;-67
2021/05/01 04:11:44;;;;;;;28.23;23.92;;;9.20;83.20;;;;;;5205426;28;20103;-67
2021/05/01 04:14:16;;;;;;;26.10;22.15;;;9.20;83.60;;;;;;5177917;28;20123;-67
2021/05/01 04:16:47;;;;;;;26.30;22.42;;;9.20;83.40;;;;;;5196277;28;20052;-67
2021/05/01 04:19:19;;;;;;;27.13;23.17;;;9.20;83.60;;;;;;5198826;28;20048;-67
2021/05/01 04:21:50;;;;;;;28.25;23.27;;;9.10;83.60;;;;;;5197144;28;20126;-67
2021/05/01 04:24:22;;;;;;;25.98;21.38;;;9.10;83.60;;;;;;5199335;28;20037;-67
2021/05/01 04:26:53;;;;;;;25.40;22.33;;;9.00;83.90;;;;;;5198334;28;20076;-67
2021/05/01 04:29:25;;;;;;;25.63;22.52;;;9.00;83.70;;;;;;5199464;28;20053;-67
2021/05/01 04:31:56;;;;;;;26.00;22.42;;;9.10;83.40;;;;;;5198511;28;20457;-67
2021/05/01 04:34:28;;;;;;;26.95;22.67;;;9.10;83.30;;;;;;5198985;28;20434;-67
2021/05/01 04:36:59;;;;;;;26.23;22.13;;;9.20;83.10;;;;;;5198488;28;20095;-67
2021/05/01 04:39:31;;;;;;;26.63;21.70;;;9.20;82.90;;;;;;5199281;28;20463;-67
2021/05/01 04:42:06;;;;;;;27.38;22.75;;;9.20;82.90;;;;;;5198775;28;20531;-67
2021/05/01 04:44:39;;;;;;;25.75;22.42;;;9.20;82.50;;;;;;5197321;28;20415;-67
2021/05/01 04:47:11;;;;;;;26.02;21.55;;;9.20;82.30;;;;;;5198091;28;20045;-67
2021/05/01 04:49:44;;;;;;;26.25;22.10;;;9.20;82.40;;;;;;5199595;28;20538;-68
2021/05/01 04:52:15;;;;;;;25.67;20.92;;;9.20;83.00;;;;;;5196976;28;20069;-67
2021/05/01 04:54:46;;;;;;;28.13;22.33;;;9.20;82.50;;;;;;5198784;28;20053;-67
2021/05/01 04:57:18;;;;;;;25.67;21.75;;;9.20;82.60;;;;;;5196893;28;20045;-67
2021/05/01 04:59:49;;;;;;;24.20;21.17;;;9.20;82.60;;;;;;5197635;28;20391;-68
2021/05/01 05:02:21;;;;;;;26.45;21.48;;;9.20;82.80;;;;;;5197916;28;20499;-68
2021/05/01 05:04:52;;;;;;;24.52;21.17;;;9.20;82.80;;;;;;5198817;28;20045;-67
2021/05/01 05:07:24;;;;;;;27.48;22.48;;;9.20;84.00;;;;;;5197838;28;20046;-67
2021/05/01 05:09:55;;;;;;;24.63;21.80;;;9.30;83.00;;;;;;5196083;28;20045;-67
2021/05/01 05:12:26;;;;;;;26.17;21.48;;;9.30;83.40;;;;;;5197095;28;20107;-67
2021/05/01 05:14:58;;;;;;;24.63;20.45;;;9.40;82.40;;;;;;5193688;28;20096;-67
2021/05/01 05:17:30;;;;;;;24.35;20.75;;;9.40;82.70;;;;;;5195710;28;20049;-67
2021/05/01 05:20:03;;;;;;;25.45;20.92;;;9.50;82.60;;;;;;5195777;28;20049;-66
2021/05/01 05:22:34;;;;;;;23.88;20.55;;;9.60;81.90;;;;;;5195241;28;20045;-67
2021/05/01 05:25:06;;;;;;;24.33;20.60;;;9.50;82.00;;;;;;5195932;28;20060;-67
2021/05/01 05:27:38;;;;;;;25.95;20.83;;;9.60;82.30;;;;;;5196463;28;20533;-67
2021/05/01 05:30:10;;;;;;;24.98;21.25;;;9.60;81.60;;;;;;5196664;28;20069;-68
2021/05/01 05:32:41;;;;;;;26.33;21.45;;;9.60;81.50;;;;;;5197621;28;20069;-68
2021/05/01 05:35:13;;;;;;;26.25;22.30;;;9.50;82.50;;;;;;5196998;28;20148;-67
2021/05/01 05:37:44;;;;;;;26.25;21.73;;;9.40;82.50;;;;;;5196476;28;20061;-67
2021/05/01 05:40:16;;;;;;;23.75;20.55;;;9.30;82.40;;;;;;5177402;28;20049;-67
2021/05/01 05:42:49;;;;;;;25.48;20.88;;;9.30;83.30;;;;;;5197933;28;20069;-67
2021/05/01 05:45:26;;;;;;;27.40;22.08;;;9.50;83.00;;;;;;5194444;28;20057;-69
2021/05/01 05:47:58;;;;;;;29.00;24.05;;;9.50;82.70;;;;;;5196179;28;20049;-66
2021/05/01 05:50:30;;;;;;;25.85;21.48;;;9.40;81.90;;;;;;5197083;28;20049;-66
2021/05/01 05:53:02;;;;;;;28.33;21.77;;;9.20;83.10;;;;;;5196991;28;20043;-67
2021/05/01 05:55:33;;;;;;;26.90;22.30;;;9.10;83.70;;;;;;5196097;28;20052;-66
2021/05/01 05:58:04;;;;;;;25.70;21.48;;;9.20;83.40;;;;;;5196912;28;20087;-67
2021/05/01 06:00:36;;;;;;;28.27;22.35;;;9.20;83.30;;;;;;5191277;28;20045;-66
2021/05/01 06:03:08;;;;;;;25.40;20.83;;;9.20;82.90;;;;;;5195284;28;20589;-67
2021/05/01 06:05:43;;;;;;;27.13;22.05;;;9.10;83.60;;;;;;5195286;28;20191;-66
2021/05/01 06:08:33;;;;;;;25.40;20.55;;;9.10;84.00;;;;;;5197413;28;20499;-67
2021/05/01 06:11:27;;;;;;;26.52;21.75;;;9.20;84.30;;;;;;5195690;28;20065;-66
2021/05/01 06:14:03;;;;;;;24.70;20.52;;;9.40;83.60;;;;;;5196741;28;20725;-67
2021/05/01 06:16:36;;;;;;;26.02;20.40;;;9.50;83.50;;;;;;5196397;28;20557;-66
2021/05/01 06:19:10;;;;;;;26.02;20.75;;;9.60;83.50;;;;;;5211418;28;20451;-67
2021/05/01 06:21:42;;;;;;;23.50;19.92;;;9.70;82.90;;;;;;5189752;28;20601;-66
2021/05/01 06:24:14;;;;;;;25.83;21.60;;;9.70;82.40;;;;;;5194398;28;20046;-66
2021/05/01 06:26:46;;;;;;;26.48;22.25;;;9.70;82.50;;;;;;5194987;28;20499;-66
2021/05/01 06:29:17;;;;;;;25.17;21.70;;;9.80;82.50;;;;;;5195174;28;20041;-66
2021/05/01 06:31:49;;;;;;;25.55;21.20;;;9.80;82.30;;;;;;5191401;28;20057;-67
2021/05/01 06:34:21;;;;;;;24.65;21.02;;;9.90;81.90;;;;;;5196343;28;20057;-66
2021/05/01 06:36:54;;;;;;;26.67;22.15;;;10.00;82.00;;;;;;5196941;28;20091;-67
2021/05/01 06:39:27;;;;;;;26.25;20.58;;;9.90;81.50;;;;;;5214768;28;20498;-66
2021/05/01 06:42:01;;;;;;;25.85;21.92;;;10.00;81.40;;;;;;5198643;28;20075;-66
2021/05/01 06:44:45;;;;;;;28.10;22.85;;;10.00;81.50;;;;;;5199208;28;20192;-67
2021/05/01 06:47:24;;;;;;;26.08;22.00;;;10.10;81.30;;;;;;5199597;28;20047;-66
2021/05/01 06:50:10;;;;;;;25.88;22.30;;;10.20;82.40;;;;;;5198484;28;20049;-66
2021/05/01 06:52:46;;;;;;;25.73;22.38;;;10.30;82.10;;;;;;5198785;28;20129;-67
2021/05/01 06:55:20;;;;;;;27.95;22.42;;;10.40;81.90;;;;;;5198192;28;20119;-66
2021/05/01 06:57:53;;;;;;;24.20;21.35;;;10.40;81.60;;;;;;5199220;28;20561;-67
2021/05/01 07:00:26;;;;;;;26.58;22.00;;;10.50;80.70;;;;;;5198145;28;20048;-66
2021/05/01 07:03:06;;;;;;;25.40;21.95;;;10.40;80.70;;;;;;5186934;28;20073;-67
2021/05/01 07:05:38;;;;;;;24.77;21.23;;;10.50;81.00;;;;;;5194406;28;21731;-66
2021/05/01 07:08:12;;;;;;;26.38;22.50;;;10.50;80.90;;;;;;5194050;28;20122;-66
2021/05/01 07:10:45;;;;;;;26.45;23.08;;;10.60;80.70;;;;;;5198646;28;20041;-66
2021/05/01 07:13:16;;;;;;;26.40;21.92;;;10.60;81.20;;;;;;5198426;28;21621;-66
2021/05/01 07:15:48;;;;;;;27.73;22.73;;;10.60;80.80;;;;;;5211923;28;20446;-67
2021/05/01 07:18:21;;;;;;;24.67;21.75;;;10.60;80.40;;;;;;5198080;28;20080;-66
2021/05/01 07:20:56;;;;;;;26.48;21.73;;;10.60;80.00;;;;;;5197937;28;20057;-67
2021/05/01 07:23:28;;;;;;;24.02;20.92;;;10.50;80.10;;;;;;5196823;28;20041;-67
2021/05/01 07:26:00;;;;;;;24.73;21.02;;;10.50;80.60;;;;;;5197150;28;20095;-67
2021/05/01 07:28:36;;;;;;;25.20;21.40;;;10.50;80.30;;;;;;5197186;28;20068;-67
2021/05/01 07:31:12;;;;;;;23.98;20.65;;;10.50;80.30;;;;;;5197670;28;20610;-68
2021/05/01 07:33:49;;;;;;;24.67;20.98;;;10.50;80.90;;;;;;5199109;28;20099;-68
2021/05/01 07:36:24;;;;;;;25.27;21.25;;;10.50;81.30;;;;;;5197652;28;20041;-67
2021/05/01 07:38:59;;;;;;;25.58;21.48;;;10.50;80.40;;;;;;5194885;28;20041;-67
2021/05/01 07:41:32;;;;;;;23.58;20.10;;;10.40;81.50;;;;;;5195413;28;20049;-66
2021/05/01 07:44:04;;;;;;;24.95;21.45;;;10.30;81.80;;;;;;5197904;28;20060;-67
2021/05/01 07:46:39;;;;;;;23.52;20.00;;;10.40;81.90;;;;;;5197586;28;20057;-70
2021/05/01 07:49:11;;;;;;;24.15;20.38;;;10.30;81.80;;;;;;5189131;28;20355;-67
2021/05/01 07:51:43;;;;;;;22.58;19.58;;;10.20;81.20;;;;;;5195615;28;20131;-66
2021/05/01 07:54:16;;;;;;;23.40;19.77;;;10.20;81.60;;;;;;5195307;28;20041;-67
2021/05/01 07:56:48;;;;;;;23.65;20.13;;;10.30;81.20;;;;;;5194647;28;20057;-68
2021/05/01 07:59:20;;;;;;;23.67;19.80;;;10.40;81.00;;;;;;5197491;28;20407;-66
2021/05/01 08:01:51;;;;;;;22.90;20.13;;;10.30;81.30;;;;;;5197172;28;20051;-67
2021/05/01 08:04:22;;;;;;;21.63;19.05;;;10.40;81.80;;;;;;5197642;28;20207;-67
2021/05/01 08:06:54;;;;;;;22.90;19.20;;;10.50;81.30;;;;;;5194985;28;20041;-68
2021/05/01 08:09:25;;;;;;;23.92;20.52;;;10.50;80.30;;;;;;5197506;28;20679;-67
2021/05/01 08:11:57;;;;;;;22.52;19.17;;;10.50;80.40;;;;;;5176117;28;20057;-68
2021/05/01 08:14:32;;;;;;;22.95;20.23;;;10.60;80.30;;;;;;5179114;28;20041;-67
2021/05/01 08:17:08;;;;;;;22.08;19.58;;;10.60;80.40;;;;;;5175526;28;20652;-70
2021/05/01 08:19:42;;;;;;;21.88;19.48;;;10.70;80.60;;;;;;5175723;28;20713;-68
2021/05/01 08:22:13;;;;;;;22.15;18.95;;;10.80;79.10;;;;;;5184738;28;21378;-68
2021/05/01 08:24:45;;;;;;;22.02;19.52;;;10.80;78.50;;;;;;5184315;28;20158;-69
2021/05/01 08:27:17;;;;;;;23.65;20.05;;;10.90;78.20;;;;;;5179965;28;20084;-66
2021/05/01 08:29:48;;;;;;;21.67;19.13;;;10.90;79.10;;;;;;5181875;28;20053;-66
2021/05/01 08:32:20;;;;;;;22.08;19.17;;;11.00;79.00;;;;;;5167585;28;20045;-66
2021/05/01 08:34:51;;;;;;;22.38;19.98;;;11.00;77.90;;;;;;5186697;28;20106;-66
2021/05/01 08:37:24;;;;;;;22.67;19.02;;;11.00;79.00;;;;;;5190183;28;20033;-66
2021/05/01 08:39:55;;;;;;;22.90;19.75;;;11.00;79.10;;;;;;5195852;28;20139;-66
2021/05/01 08:42:27;;;;;;;22.67;19.98;;;11.10;78.60;;;;;;5192498;28;20052;-68
2021/05/01 08:45:06;;;;;;;21.98;19.58;;;11.20;78.20;;;;;;5192618;28;20085;-66
2021/05/01 08:47:42;;;;;;;21.65;19.15;;;11.30;78.70;;;;;;5195041;28;20511;-66
2021/05/01 08:50:41;;;;;;;22.42;19.00;;;11.20;77.80;;;;;;5196301;28;20572;-66
2021/05/01 08:53:12;;;;;;;23.35;19.42;;;11.20;78.00;;;;;;5195841;28;20605;-69
2021/05/01 08:55:43;;;;;;;21.63;19.13;;;11.20;78.00;;;;;;5196877;28;20064;-66
2021/05/01 08:58:15;;;;;;;23.52;19.77;;;11.10;78.40;;;;;;5196470;28;20148;-66
2021/05/01 09:00:51;;;;;;;21.13;18.83;;;11.10;78.30;;;;;;5193451;28;20041;-66
2021/05/01 09:03:23;;;;;;;19.95;17.85;;;11.20;79.50;;;;;;5195237;28;20116;-66
2021/05/01 09:05:58;;;;;;;20.90;18.33;;;11.10;78.40;;;;;;5194238;28;20052;-66
2021/05/01 09:08:30;;;;;;;20.67;17.92;;;11.10;78.70;;;;;;5194102;28;20778;-66
2021/05/01 09:11:03;;;;;;;20.90;18.67;;;11.10;78.30;;;;;;5212714;28;20049;-66
2021/05/01 09:13:47;;;;;;;21.85;19.13;;;11.10;78.90;;;;;;5195348;28;20119;-66
2021/05/01 09:16:18;;;;;;;22.25;19.85;;;11.10;78.90;;;;;;5196338;28;20156;-66
2021/05/01 09:18:58;;;;;;;22.45;17.95;;;11.10;78.60;;;;;;5193540;28;20120;-66
2021/05/01 09:21:31;;;;;;;30.30;24.10;;;11.10;78.10;;;;;;5210080;28;20061;-66
2021/05/01 09:24:03;;;;;;;23.83;19.63;;;11.10;77.90;;;;;;5194998;28;20292;-67
2021/05/01 09:26:40;;;;;;;21.15;18.60;;;11.10;78.30;;;;;;5193170;28;20132;-67
2021/05/01 09:29:34;;;;;;;24.13;20.42;;;11.20;78.40;;;;;;5196541;28;20133;-67
2021/05/01 09:32:20;;;;;;;21.35;18.52;;;11.20;78.40;;;;;;5192996;28;20054;-70
2021/05/01 09:34:55;;;;;;;25.02;20.40;;;11.20;77.70;;;;;;5193723;28;20157;-67
2021/05/01 09:37:29;;;;;;;21.45;18.95;;;11.30;77.90;;;;;;5194571;28;20152;-66
2021/05/01 09:40:01;;;;;;;23.50;20.15;;;11.30;77.00;;;;;;5192597;28;20041;-67
2021/05/01 09:42:35;;;;;;;22.13;19.35;;;11.20;77.30;;;;;;5188979;28;20064;-66
2021/05/01 09:45:19;;;;;;;21.13;17.67;;;11.20;77.10;;;;;;5191645;28;20634;-66
2021/05/01 09:47:52;;;;;;;20.75;17.73;;;11.10;77.50;;;;;;5194817;28;20132;-66
2021/05/01 09:50:26;;;;;;;21.42;17.77;;;11.20;77.40;;;;;;5192859;28;20041;-66
2021/05/01 09:52:57;;;;;;;21.00;18.50;;;11.10;77.00;;;;;;5194770;28;20049;-67
2021/05/01 09:55:54;;;;;;;20.20;17.90;;;11.00;77.00;;;;;;5194954;28;20049;-66
2021/05/01 09:58:27;;;;;;;22.10;18.88;;;11.00;77.30;;;;;;5193861;28;20049;-66
2021/05/01 10:01:15;;;;;;;22.40;19.10;;;10.90;77.40;;;;;;5211188;28;20060;-66
2021/05/01 10:03:47;;;;;;;22.77;19.17;;;10.80;77.70;;;;;;5196232;28;20135;-66
2021/05/01 10:06:20;;;;;;;24.33;19.27;;;10.80;77.70;;;;;;5195958;28;20053;-66
2021/05/01 10:08:53;;;;;;;21.33;18.33;;;10.60;77.90;;;;;;5194937;28;20053;-67
2021/05/01 10:11:29;;;;;;;20.63;18.38;;;10.60;78.20;;;;;;5193903;28;20574;-69
2021/05/01 10:14:01;;;;;;;21.15;18.13;;;10.70;78.30;;;;;;5195714;28;20049;-66
2021/05/01 10:16:33;;;;;;;22.02;18.58;;;10.70;78.00;;;;;;5199341;28;20107;-66
2021/05/01 10:19:12;;;;;;;23.08;19.33;;;10.60;78.60;;;;;;5195984;28;20102;-66
2021/05/01 10:21:47;;;;;;;19.70;17.25;;;10.60;78.70;;;;;;5194273;28;20153;-68
2021/05/01 10:24:19;;;;;;;19.83;16.60;;;10.70;78.50;;;;;;5197650;28;20049;-66
2021/05/01 10:26:51;;;;;;;21.38;18.27;;;10.70;78.80;;;;;;5194080;28;20171;-66
2021/05/01 10:29:38;;;;;;;20.70;17.90;;;10.80;78.30;;;;;;5191965;28;20064;-66
2021/05/01 10:32:32;;;;;;;20.55;18.02;;;10.70;78.00;;;;;;5195734;28;20446;-66
2021/05/01 10:35:04;;;;;;;20.15;17.38;;;10.50;78.40;;;;;;5196680;28;20064;-68
2021/05/01 10:37:41;;;;;;;20.60;18.15;;;10.60;79.00;;;;;;5198136;28;20597;-66
2021/05/01 10:40:13;;;;;;;18.67;16.45;;;10.60;78.60;;;;;;5211389;28;20044;-66
2021/05/01 10:42:45;;;;;;;21.02;17.17;;;10.60;78.00;;;;;;5198317;28;20069;-66
2021/05/01 10:45:26;;;;;;;19.85;17.40;;;10.50;78.40;;;;;;5197150;28;20140;-67
2021/05/01 10:48:26;;;;;;;20.13;17.92;;;10.50;78.60;;;;;;5199631;28;20156;-66
2021/05/01 10:51:07;;;;;;;18.45;16.33;;;10.50;79.10;;;;;;5195607;28;20037;-67
2021/05/01 10:53:39;;;;;;;19.75;17.65;;;10.40;78.90;;;;;;5199966;28;20096;-67
2021/05/01 10:56:12;;;;;;;18.88;16.77;;;10.50;78.90;;;;;;5198503;28;20072;-66
2021/05/01 10:58:45;;;;;;;20.75;17.60;;;10.50;78.30;;;;;;5199437;28;20410;-66
2021/05/01 11:01:36;;;;;;;21.70;18.52;;;10.40;79.50;;;;;;5196533;28;20113;-66
2021/05/01 11:04:10;;;;;;;20.10;16.92;;;10.30;79.60;;;;;;5197377;28;20121;-66
2021/05/01 11:06:48;;;;;;;19.15;16.85;;;10.30;79.00;;;;;;5197398;28;20068;-66
2021/05/01 11:09:37;;;;;;;19.85;16.85;;;10.30;79.10;;;;;;5196757;28;20053;-66
2021/05/01 11:12:11;;;;;;;18.90;16.40;;;10.40;79.70;;;;;;5197108;28;20063;-67
2021/05/01 11:14:49;;;;;;;20.40;16.63;;;10.40;79.20;;;;;;5197672;28;20055;-67
2021/05/01 11:17:33;;;;;;;19.35;16.75;;;10.40;79.70;;;;;;5196597;28;20056;-67
2021/05/01 11:20:13;;;;;;;18.05;15.57;;;10.20;80.10;;;;;;5197305;28;20443;-67
2021/05/01 11:22:51;;;;;;;18.67;16.13;;;10.20;80.90;;;;;;5197369;28;20099;-68
2021/05/01 11:25:23;;;;;;;18.08;16.13;;;10.10;80.80;;;;;;5179194;28;20153;-66
2021/05/01 11:27:56;;;;;;;17.70;15.82;;;10.10;81.10;;;;;;5194258;28;20041;-67
2021/05/01 11:30:29;;;;;;;18.13;15.95;;;10.20;81.20;;;;;;5196230;28;20045;-67
2021/05/01 11:33:08;;;;;;;17.67;15.25;;;10.10;81.30;;;;;;5199571;28;20586;-67
2021/05/01 11:35:40;;;;;;;18.77;15.75;;;10.00;81.80;;;;;;5199715;28;20100;-67
2021/05/01 11:38:19;;;;;;;18.13;15.57;;;10.00;82.30;;;;;;5198703;28;20095;-68
2021/05/01 11:40:54;;;;;;;19.08;16.27;;;10.10;82.40;;;;;;5197247;28;20143;-67
2021/05/01 11:43:27;;;;;;;18.55;15.52;;;10.20;81.50;;;;;;5199536;28;20052;-67
2021/05/01 11:46:20;;;;;;;17.63;15.27;;;10.10;81.00;;;;;;5195562;28;20053;-67
2021/05/01 11:49:06;;;;;;;19.15;15.57;;;10.20;82.40;;;;;;5197328;28;20045;-67
2021/05/01 11:52:04;;;;;;;17.77;14.80;;;10.10;81.60;;;;;;5198251;28;20041;-67
2021/05/01 11:54:48;;;;;;;18.67;16.42;;;9.90;82.30;;;;;;5214272;28;20051;-67
2021/05/01 11:57:38;;;;;;;18.02;16.10;;;9.90;82.80;;;;;;5199110;28;20049;-68
2021/05/01 12:00:10;;;;;;;18.73;16.73;;;9.90;83.20;;;;;;5195168;28;20146;-67
2021/05/01 12:02:48;;;;;;;19.55;16.15;;;10.00;82.70;;;;;;5196499;28;20041;-67
2021/05/01 12:05:23;;;;;;;17.58;15.00;;;10.00;83.30;;;;;;5195983;28;20095;-68
2021/05/01 12:08:04;;;;;;;17.65;15.60;;;10.10;82.70;;;;;;5193052;28;20170;-67
2021/05/01 12:10:43;;;;;;;17.58;15.68;;;10.00;82.40;;;;;;5196323;28;20405;-67
2021/05/01 12:13:36;;;;;;;18.93;16.87;;;9.90;84.10;;;;;;5196761;28;20048;-68
2021/05/01 12:16:18;;;;;;;17.33;15.43;;;10.00;83.50;;;;;;5195388;28;20121;-68
2021/05/01 12:18:52;;;;;;;18.10;15.65;;;10.10;82.20;;;;;;5195038;28;20684;-67
2021/05/01 12:21:29;;;;;;;18.60;16.08;;;10.10;82.80;;;;;;5195135;28;20123;-68
2021/05/01 12:24:01;;;;;;;19.27;16.10;;;10.20;82.80;;;;;;5196171;28;20261;-67
2021/05/01 12:26:53;;;;;;;18.35;15.63;;;10.20;82.90;;;;;;5194691;28;20052;-68
2021/05/01 12:29:31;;;;;;;18.73;15.50;;;10.30;83.00;;;;;;5196961;28;20349;-67
2021/05/01 12:32:06;;;;;;;17.98;15.43;;;10.40;83.10;;;;;;5185913;28;20753;-67
2021/05/01 12:34:49;;;;;;;18.38;15.50;;;10.30;83.00;;;;;;5179599;28;20064;-67
2021/05/01 12:37:22;;;;;;;19.23;16.23;;;10.30;83.30;;;;;;5196953;28;20151;-67
2021/05/01 12:40:00;;;;;;;20.05;17.27;;;10.10;83.80;;;;;;5198100;28;20120;-67
2021/05/01 12:42:34;;;;;;;18.10;16.02;;;10.10;84.00;;;;;;5194391;28;20053;-68
2021/05/01 12:45:38;;;;;;;19.58;17.17;;;10.10;84.00;;;;;;5194300;28;20052;-67
2021/05/01 12:48:09;;;;;;;20.85;16.58;;;10.10;83.30;;;;;;5170443;28;20561;-67
2021/05/01 12:50:42;;;;;;;18.67;16.48;;;10.10;83.50;;;;;;5188670;28;20038;-67
2021/05/01 12:53:30;;;;;;;20.20;17.25;;;10.10;83.30;;;;;;5197101;28;20041;-67
2021/05/01 12:56:22;;;;;;;19.63;16.77;;;10.00;83.00;;;;;;5189165;28;20637;-67
2021/05/01 12:59:19;;;;;;;20.25;16.98;;;10.00;83.60;;;;;;5189867;28;20042;-67
2021/05/01 13:01:53;;;;;;;20.20;17.48;;;10.00;83.80;;;;;;5195642;28;20057;-67
2021/05/01 13:04:27;;;;;;;21.58;18.02;;;10.10;84.00;;;;;;5196407;28;20049;-67
2021/05/01 13:07:00;;;;;;;19.20;16.85;;;10.00;83.70;;;;;;5193860;28;20138;-67
2021/05/01 13:09:37;;;;;;;19.98;16.05;;;10.10;84.00;;;;;;5188528;28;20124;-67